Time;durP1;ratioP1;P1;durP2;ratioP2;P2;SDS_P1;SDS_P2;PMS_P1;PMS_P2;Temp;Humidity;BMP_temperature;BMP_pressure;BME280_temperature;BME280_humidity;BME280_pressure;Samples;Min_cycle;Max_cycle;Signal;HPM_P1;HPM_P2
2022/08/06 00:02:15;;;;;;;2.90;1.30;;;;;;;16.44;61.51;101161.44;5071841;28;20045;-70
2022/08/06 00:04:43;;;;;;;3.28;1.13;;;;;;;16.47;61.26;101174.81;5075459;28;20055;-70
2022/08/06 00:07:10;;;;;;;4.38;1.38;;;;;;;16.52;61.58;101168.19;5072663;28;20504;-69
2022/08/06 00:09:37;;;;;;;2.72;1.20;;;;;;;16.55;61.27;101170.34;5075101;28;20060;-69
2022/08/06 00:12:07;;;;;;;2.28;1.20;;;;;;;16.57;61.41;101174.44;5071927;28;20056;-66
2022/08/06 00:14:35;;;;;;;2.63;1.50;;;;;;;16.52;61.41;101171.81;5068531;28;20445;-69
2022/08/06 00:17:02;;;;;;;1.98;1.30;;;;;;;16.58;61.36;101167.66;5075197;28;20056;-69
2022/08/06 00:19:30;;;;;;;2.78;1.40;;;;;;;16.61;61.01;101169.81;5070792;28;20049;-69
2022/08/06 00:21:57;;;;;;;2.85;1.25;;;;;;;16.67;61.17;101178.03;5074959;28;20056;-70
2022/08/06 00:24:24;;;;;;;3.15;1.30;;;;;;;16.68;61.05;101171.25;5071840;28;20049;-69
2022/08/06 00:26:52;;;;;;;2.75;1.30;;;;;;;16.67;61.08;101176.03;5062526;28;20052;-69
2022/08/06 00:29:20;;;;;;;3.75;1.42;;;;;;;16.69;60.77;101176.53;5068651;28;20071;-69
2022/08/06 00:31:48;;;;;;;1.77;1.23;;;;;;;16.68;60.56;101182.50;5074353;28;20060;-70
2022/08/06 00:34:15;;;;;;;3.88;1.50;;;;;;;16.62;60.31;101174.25;5066913;28;20052;-69
2022/08/06 00:36:42;;;;;;;2.47;1.27;;;;;;;16.64;60.59;101191.63;5074803;28;20416;-69
2022/08/06 00:39:10;;;;;;;2.30;1.30;;;;;;;16.66;61.15;101190.47;5070434;28;20052;-68
2022/08/06 00:41:38;;;;;;;4.13;1.67;;;;;;;16.68;61.00;101188.13;5069880;28;20056;-70
2022/08/06 00:44:05;;;;;;;4.47;1.63;;;;;;;16.67;61.00;101186.47;5074541;28;20053;-70
2022/08/06 00:46:34;;;;;;;4.57;1.63;;;;;;;16.64;60.98;101194.44;5069496;28;20067;-69
2022/08/06 00:49:02;;;;;;;2.87;1.50;;;;;;;16.64;61.27;101190.78;5074616;28;20049;-69
2022/08/06 00:51:29;;;;;;;3.42;1.25;;;;;;;16.63;61.31;101194.75;5070951;28;20057;-69
2022/08/06 00:53:56;;;;;;;2.55;1.50;;;;;;;16.61;61.38;101186.69;5066769;28;20048;-69
2022/08/06 00:56:23;;;;;;;2.90;1.60;;;;;;;16.58;61.57;101192.16;5074353;28;20052;-69
2022/08/06 00:58:51;;;;;;;3.83;1.30;;;;;;;16.55;62.32;101190.03;5071767;28;20067;-69
2022/08/06 01:01:18;;;;;;;3.50;1.60;;;;;;;16.50;62.51;101193.81;5072068;28;20052;-69
2022/08/06 01:03:47;;;;;;;3.05;1.70;;;;;;;16.47;62.79;101188.88;5074374;28;20071;-69
2022/08/06 01:06:14;;;;;;;4.00;1.43;;;;;;;16.47;62.81;101188.06;5071893;28;20063;-69
2022/08/06 01:08:42;;;;;;;2.97;1.40;;;;;;;16.44;62.74;101195.16;5074172;28;20506;-69
2022/08/06 01:11:09;;;;;;;2.38;1.40;;;;;;;16.37;63.37;101200.50;5072352;28;20056;-69
2022/08/06 01:13:37;;;;;;;5.57;1.50;;;;;;;16.33;62.95;101196.72;5073931;28;20052;-69
2022/08/06 01:16:12;;;;;;;1.85;1.30;;;;;;;16.29;63.14;101204.16;5069622;28;20429;-70
2022/08/06 01:18:48;;;;;;;3.90;1.58;;;;;;;16.15;62.95;101204.38;5071924;28;20481;-69
2022/08/06 01:21:33;;;;;;;3.03;1.52;;;;;;;16.07;63.19;101205.22;5073535;28;20127;-69
2022/08/06 01:24:34;;;;;;;2.63;1.38;;;;;;;15.99;63.40;101207.69;5072107;28;20135;-69
2022/08/06 01:27:23;;;;;;;3.83;1.40;;;;;;;15.93;63.21;101209.03;5073886;28;20053;-69
2022/08/06 01:29:58;;;;;;;4.63;1.80;;;;;;;15.66;64.02;101198.94;5051477;28;20144;-69
2022/08/06 01:32:32;;;;;;;3.35;1.60;;;;;;;15.60;64.38;101200.28;5053657;28;20057;-69
2022/08/06 01:35:02;;;;;;;3.45;1.40;;;;;;;15.55;64.20;101220.09;5061956;28;20053;-69
2022/08/06 01:37:33;;;;;;;2.63;1.70;;;;;;;15.49;64.31;101215.81;5069592;28;20059;-70
2022/08/06 01:40:04;;;;;;;4.57;1.48;;;;;;;15.42;64.48;101219.94;5073379;28;20059;-69
2022/08/06 01:42:33;;;;;;;2.42;1.40;;;;;;;15.40;64.42;101216.63;5069048;28;20052;-69
2022/08/06 01:45:04;;;;;;;2.95;1.55;;;;;;;15.33;64.33;101218.25;5073116;28;20076;-69
2022/08/06 01:47:33;;;;;;;5.18;1.83;;;;;;;15.23;64.67;101213.81;5070262;28;20092;-69
2022/08/06 01:50:03;;;;;;;;;;;;;;;15.07;65.23;101210.63;5073570;28;20048;-69
2022/08/06 01:52:34;;;;;;;4.25;1.95;;;;;;;14.96;65.03;101215.72;5069804;28;19924;-69
2022/08/06 01:55:03;;;;;;;3.20;1.70;;;;;;;14.86;65.49;101215.19;5073370;28;20063;-69
2022/08/06 01:57:34;;;;;;;4.88;1.65;;;;;;;14.79;66.18;101224.91;5071873;28;20067;-69
2022/08/06 02:00:06;;;;;;;3.08;1.70;;;;;;;14.72;66.36;101230.16;5072759;28;20389;-69
2022/08/06 02:02:37;;;;;;;5.57;1.80;;;;;;;14.66;66.38;101233.41;5069638;28;20059;-69
2022/08/06 02:05:07;;;;;;;3.28;1.40;;;;;;;14.61;66.65;101234.41;5071135;28;20060;-69
2022/08/06 02:07:40;;;;;;;2.50;1.48;;;;;;;14.58;66.55;101227.47;5073226;28;20416;-69
2022/08/06 02:10:10;;;;;;;2.42;1.52;;;;;;;14.55;66.68;101227.25;5071414;28;20053;-69
2022/08/06 02:12:40;;;;;;;3.30;1.92;;;;;;;14.45;66.79;101236.78;5072971;28;20057;-70
2022/08/06 02:15:14;;;;;;;3.38;1.50;;;;;;;14.38;66.53;101234.44;5069844;28;20082;-69
2022/08/06 02:17:46;;;;;;;3.60;1.60;;;;;;;14.35;66.59;101229.47;5067914;28;20056;-69
2022/08/06 02:20:17;;;;;;;1.80;1.60;;;;;;;14.29;66.73;101238.34;5073004;28;20481;-69
2022/08/06 02:22:47;;;;;;;3.60;1.73;;;;;;;14.20;67.20;101238.28;5066186;28;20492;-69
2022/08/06 02:25:17;;;;;;;4.43;1.83;;;;;;;14.18;67.10;101240.59;5072322;28;20048;-69
2022/08/06 02:27:48;;;;;;;3.00;1.65;;;;;;;14.08;67.31;101246.44;5067814;28;20056;-69
2022/08/06 02:30:17;;;;;;;5.68;1.65;;;;;;;14.05;67.27;101250.72;5068758;28;20060;-69
2022/08/06 02:32:45;;;;;;;2.05;1.48;;;;;;;13.96;67.28;101245.06;5072664;28;20048;-69
2022/08/06 02:35:13;;;;;;;2.88;1.67;;;;;;;13.90;67.38;101251.09;5064353;28;20049;-70
2022/08/06 02:37:47;;;;;;;4.35;1.63;;;;;;;13.84;67.84;101255.16;5063311;28;20053;-70
2022/08/06 02:40:20;;;;;;;3.92;1.65;;;;;;;13.77;68.48;101256.44;5072153;28;20063;-69
2022/08/06 02:42:54;;;;;;;4.15;1.80;;;;;;;13.72;68.12;101250.94;5071207;28;20055;-70
2022/08/06 02:45:28;;;;;;;4.15;1.85;;;;;;;13.64;68.32;101254.50;5072390;28;20362;-69
2022/08/06 02:48:05;;;;;;;2.45;1.70;;;;;;;13.61;68.34;101266.34;5063487;28;20060;-69
2022/08/06 02:50:36;;;;;;;3.13;1.98;;;;;;;13.53;68.96;101258.69;5064209;28;20408;-69
2022/08/06 02:53:07;;;;;;;2.15;1.60;;;;;;;13.52;68.75;101262.63;5071846;28;20509;-66
2022/08/06 02:55:38;;;;;;;3.35;1.92;;;;;;;13.45;69.09;101262.25;5072487;28;20071;-69
2022/08/06 02:58:13;;;;;;;3.05;1.70;;;;;;;13.43;69.11;101256.94;5069948;28;20055;-70
2022/08/06 03:00:43;;;;;;;3.88;1.83;;;;;;;13.34;69.40;101262.47;5069719;28;20485;-68
2022/08/06 03:03:14;;;;;;;3.53;2.00;;;;;;;13.34;69.22;101256.03;5070026;28;20056;-69
2022/08/06 03:05:44;;;;;;;2.22;1.58;;;;;;;13.31;69.48;101253.84;5068250;28;20139;-70
2022/08/06 03:08:16;;;;;;;3.67;1.75;;;;;;;13.27;69.05;101259.25;5066626;28;20059;-69
2022/08/06 03:10:46;;;;;;;3.85;2.13;;;;;;;13.22;69.21;101264.94;5072094;28;20480;-70
2022/08/06 03:13:14;;;;;;;4.72;1.92;;;;;;;13.21;69.48;101263.28;5068290;28;20053;-70
2022/08/06 03:15:44;;;;;;;2.58;1.70;;;;;;;13.19;69.52;101265.56;5066353;28;20049;-69
2022/08/06 03:18:14;;;;;;;4.53;1.98;;;;;;;13.15;69.64;101270.13;5068671;28;20055;-69
2022/08/06 03:20:42;;;;;;;;;;;;;;;13.07;69.51;101271.69;5071849;28;20051;-70
2022/08/06 03:23:10;;;;;;;3.70;1.88;;;;;;;13.04;69.21;101271.47;5071947;28;19927;-69
2022/08/06 03:25:40;;;;;;;2.50;1.55;;;;;;;12.97;69.37;101283.91;5070044;28;20048;-71
2022/08/06 03:28:10;;;;;;;5.13;1.88;;;;;;;12.95;69.80;101272.19;5069087;28;20045;-69
2022/08/06 03:30:39;;;;;;;4.55;1.95;;;;;;;12.97;70.33;101286.69;5066311;28;20048;-69
2022/08/06 03:33:11;;;;;;;5.20;2.50;;;;;;;12.95;70.09;101283.38;5071884;28;20053;-69
2022/08/06 03:35:39;;;;;;;3.88;2.00;;;;;;;12.94;70.03;101280.91;5069797;28;20052;-70
2022/08/06 03:38:08;;;;;;;3.72;2.13;;;;;;;12.90;69.94;101285.47;5071566;28;20052;-69
2022/08/06 03:40:37;;;;;;;3.17;1.90;;;;;;;12.90;69.70;101291.88;5067635;28;20485;-66
2022/08/06 03:43:05;;;;;;;3.75;1.77;;;;;;;12.86;69.72;101296.44;5066639;28;20052;-70
2022/08/06 03:45:37;;;;;;;3.60;1.70;;;;;;;12.79;70.09;101296.84;5071415;28;20057;-70
2022/08/06 03:48:07;;;;;;;2.55;2.08;;;;;;;12.77;70.44;101299.13;5066204;28;20469;-69
2022/08/06 03:50:42;;;;;;;2.90;1.98;;;;;;;12.76;69.95;101297.47;5071898;28;20049;-69
2022/08/06 03:53:16;;;;;;;3.15;2.05;;;;;;;12.67;70.68;101306.88;5070124;28;20057;-70
2022/08/06 03:55:46;;;;;;;3.42;2.10;;;;;;;12.66;70.70;101302.41;5071444;28;20051;-69
2022/08/06 03:58:16;;;;;;;2.17;1.63;;;;;;;12.67;70.40;101299.31;5068043;28;20053;-69
2022/08/06 04:00:48;;;;;;;4.90;2.15;;;;;;;12.70;70.11;101307.06;5064119;28;20053;-70
2022/08/06 04:03:16;;;;;;;3.10;2.38;;;;;;;12.69;70.47;101311.03;5071572;28;20057;-70
2022/08/06 04:05:45;;;;;;;3.28;2.30;;;;;;;12.67;70.37;101306.88;5069895;28;20048;-70
2022/08/06 04:08:13;;;;;;;3.17;2.10;;;;;;;12.65;70.47;101317.53;5075141;28;20056;-70
2022/08/06 04:10:43;;;;;;;3.90;2.10;;;;;;;12.68;70.14;101319.72;5073684;28;20056;-70
2022/08/06 04:13:13;;;;;;;2.88;1.88;;;;;;;12.66;70.42;101322.84;5075065;28;20515;-70
2022/08/06 04:15:42;;;;;;;3.10;1.88;;;;;;;12.65;70.35;101311.94;5072353;28;20055;-69
2022/08/06 04:18:11;;;;;;;4.13;2.13;;;;;;;12.63;70.10;101317.84;5059432;28;20053;-69
2022/08/06 04:20:41;;;;;;;3.80;2.03;;;;;;;12.64;70.01;101321.47;5057842;28;20494;-69
2022/08/06 04:23:10;;;;;;;3.00;2.08;;;;;;;12.64;70.12;101315.88;5065418;28;20048;-70
2022/08/06 04:25:41;;;;;;;3.42;2.00;;;;;;;12.62;69.92;101319.00;5054924;28;20076;-70
2022/08/06 04:28:10;;;;;;;3.88;1.80;;;;;;;12.59;69.98;101325.19;5059563;28;20052;-70
2022/08/06 04:30:40;;;;;;;5.68;2.40;;;;;;;12.59;70.18;101337.19;5072726;28;20067;-70
2022/08/06 04:33:11;;;;;;;4.18;2.10;;;;;;;12.61;69.89;101328.50;5072763;28;20056;-70
2022/08/06 04:35:41;;;;;;;3.97;2.33;;;;;;;12.64;70.45;101327.91;5066812;28;20053;-67
2022/08/06 04:38:11;;;;;;;4.35;2.05;;;;;;;12.65;70.24;101329.53;5061705;28;20065;-70
2022/08/06 04:40:38;;;;;;;;;;;;;;;12.58;71.06;101335.53;5065482;28;20045;-70
2022/08/06 04:43:06;;;;;;;3.13;2.15;;;;;;;12.62;70.12;101335.75;5065849;28;19928;-69
2022/08/06 04:45:35;;;;;;;6.22;2.40;;;;;;;12.62;70.57;101335.75;5053955;28;20064;-70
2022/08/06 04:48:06;;;;;;;2.30;2.03;;;;;;;12.69;70.07;101340.94;5063814;28;21119;-69
2022/08/06 04:50:33;;;;;;;4.35;1.90;;;;;;;12.65;71.42;101328.72;5060422;28;20053;-49
2022/08/06 04:53:11;;;;;;;4.35;2.33;;;;;;;12.49;72.38;101334.56;5062579;28;20056;-50
2022/08/06 04:55:39;;;;;;;5.25;2.20;;;;;;;12.41;72.47;101335.28;5053775;28;20478;-49
2022/08/06 04:58:08;;;;;;;3.50;2.08;;;;;;;12.48;73.06;101344.09;5060479;28;20064;-50
2022/08/06 05:00:37;;;;;;;5.47;2.70;;;;;;;12.49;73.67;101342.94;5060349;28;20052;-49
2022/08/06 05:03:05;;;;;;;5.18;2.28;;;;;;;12.67;73.84;101343.22;5063567;28;20056;-49
2022/08/06 05:05:38;;;;;;;3.53;1.92;;;;;;;12.86;72.94;101352.34;5062420;28;20059;-50
2022/08/06 05:08:07;;;;;;;4.32;2.40;;;;;;;13.00;72.89;101349.59;5063459;28;20056;-49
2022/08/06 05:10:42;;;;;;;3.92;2.30;;;;;;;13.06;72.13;101361.50;5064101;28;20061;-49
2022/08/06 05:13:13;;;;;;;4.45;2.15;;;;;;;13.05;72.13;101360.66;5063135;28;20056;-49
2022/08/06 05:15:44;;;;;;;3.08;2.20;;;;;;;13.38;71.39;101363.41;5063417;28;20392;-50
2022/08/06 05:18:16;;;;;;;3.78;2.00;;;;;;;13.56;70.67;101353.22;5062246;28;20056;-50
2022/08/06 05:20:50;;;;;;;3.13;2.00;;;;;;;13.75;70.55;101356.72;5063236;28;20055;-49
2022/08/06 05:23:21;;;;;;;4.45;2.15;;;;;;;13.83;70.32;101362.72;5061502;28;20057;-48
2022/08/06 05:25:50;;;;;;;5.60;2.67;;;;;;;13.95;69.60;101354.59;5061941;28;20753;-51
2022/08/06 05:28:18;;;;;;;3.40;2.40;;;;;;;14.05;68.82;101359.97;5065081;28;20056;-52
2022/08/06 05:30:47;;;;;;;3.17;2.15;;;;;;;14.27;68.59;101358.31;5061739;28;20052;-49
2022/08/06 05:33:23;;;;;;;3.70;2.30;;;;;;;14.31;68.46;101362.97;5062463;28;20049;-51
2022/08/06 05:35:51;;;;;;;3.55;2.50;;;;;;;14.48;68.38;101362.28;5062444;28;20049;-50
2022/08/06 05:38:18;;;;;;;4.63;2.33;;;;;;;14.35;68.55;101365.97;5066646;28;20424;-48
2022/08/06 05:40:45;;;;;;;6.10;2.65;;;;;;;14.30;68.08;101368.88;5064825;28;20060;-49
2022/08/06 05:43:14;;;;;;;4.53;2.47;;;;;;;14.45;68.16;101364.88;5073089;28;20063;-49
2022/08/06 05:45:43;;;;;;;3.50;1.88;;;;;;;14.53;68.34;101367.75;5072303;28;20508;-50
2022/08/06 05:48:13;;;;;;;3.25;2.30;;;;;;;14.74;67.18;101368.09;5072778;28;20056;-50
2022/08/06 05:51:00;;;;;;;5.53;2.75;;;;;;;14.88;66.77;101376.41;5069234;28;20057;-52
2022/08/06 05:53:33;;;;;;;5.57;2.47;;;;;;;15.03;66.31;101377.97;5059612;28;20487;-50
2022/08/06 05:56:05;;;;;;;3.80;2.58;;;;;;;14.95;66.36;101382.41;5065293;28;20068;-51
2022/08/06 05:58:42;;;;;;;5.25;2.50;;;;;;;15.01;66.50;101381.13;5065079;28;20052;-49
2022/08/06 06:01:12;;;;;;;3.30;2.20;;;;;;;15.19;66.25;101387.63;5062405;28;20140;-51
2022/08/06 06:03:41;;;;;;;4.72;2.25;;;;;;;15.17;66.36;101383.50;5070539;28;20049;-49
2022/08/06 06:06:09;;;;;;;4.82;2.60;;;;;;;15.31;65.75;101389.81;5065651;28;20052;-50
2022/08/06 06:08:37;;;;;;;7.43;2.90;;;;;;;15.22;65.67;101397.38;5059059;28;20481;-49
2022/08/06 06:11:07;;;;;;;5.07;3.25;;;;;;;14.76;67.09;101390.19;5062531;28;21297;-49
2022/08/06 06:13:38;;;;;;;5.43;2.97;;;;;;;14.88;66.99;101384.00;5061297;28;20079;-50
2022/08/06 06:16:16;;;;;;;4.45;2.40;;;;;;;15.13;66.58;101388.09;5056476;28;20048;-49
2022/08/06 06:18:58;;;;;;;4.47;2.80;;;;;;;15.12;66.70;101389.22;5062623;28;20044;-51
2022/08/06 06:21:45;;;;;;;3.70;2.55;;;;;;;15.41;65.43;101383.94;5062389;28;20052;-50
2022/08/06 06:24:19;;;;;;;5.15;3.13;;;;;;;15.64;65.27;101392.22;5065840;28;20053;-52
2022/08/06 06:26:58;;;;;;;6.18;3.38;;;;;;;15.41;65.80;101399.91;5066888;28;20048;-51
2022/08/06 06:29:38;;;;;;;3.72;2.67;;;;;;;15.42;65.89;101395.97;5064164;28;20422;-50
2022/08/06 06:32:11;;;;;;;4.43;2.70;;;;;;;15.67;64.98;101396.41;5065105;28;20055;-50
2022/08/06 06:34:51;;;;;;;7.00;3.13;;;;;;;15.61;64.77;101399.34;5063286;28;20060;-52
2022/08/06 06:37:31;;;;;;;4.93;2.65;;;;;;;15.91;64.67;101402.41;5054976;28;20049;-49
2022/08/06 06:40:15;;;;;;;4.18;2.42;;;;;;;16.18;63.77;101411.69;5059621;28;20048;-49
2022/08/06 06:42:49;;;;;;;3.97;2.35;;;;;;;16.35;63.79;101403.25;5063854;28;20401;-49
2022/08/06 06:45:25;;;;;;;5.22;1.90;;;;;;;16.54;62.74;101402.09;5063528;28;20048;-49
2022/08/06 06:47:59;;;;;;;4.82;2.58;;;;;;;16.61;62.71;101403.25;5059492;28;20048;-50
2022/08/06 06:50:29;;;;;;;7.00;2.80;;;;;;;16.77;62.12;101402.72;5058912;28;20044;-53
2022/08/06 06:52:58;;;;;;;5.45;2.83;;;;;;;16.91;61.20;101399.78;5061181;28;20057;-50
2022/08/06 06:55:34;;;;;;;4.18;2.03;;;;;;;17.05;61.17;101406.03;5061165;28;20457;-51
2022/08/06 06:58:07;;;;;;;4.28;2.33;;;;;;;17.24;60.61;101411.25;5065633;28;20404;-50
2022/08/06 07:00:37;;;;;;;4.65;2.35;;;;;;;17.40;60.03;101420.78;5063744;28;20052;-50
2022/08/06 07:03:06;;;;;;;3.40;2.08;;;;;;;17.54;59.59;101411.28;5067775;28;20056;-50
2022/08/06 07:05:36;;;;;;;5.32;2.22;;;;;;;17.60;59.26;101407.13;5070026;28;20059;-49
2022/08/06 07:08:05;;;;;;;5.95;2.30;;;;;;;17.77;58.83;101417.47;5069292;28;20044;-50
2022/08/06 07:10:33;;;;;;;4.00;1.90;;;;;;;17.91;58.44;101415.28;5067161;28;20059;-48
2022/08/06 07:13:01;;;;;;;4.40;2.20;;;;;;;18.04;57.80;101419.00;5060430;28;20049;-69
2022/08/06 07:15:30;;;;;;;6.55;2.13;;;;;;;18.17;57.13;101422.72;5059429;28;20059;-69
2022/08/06 07:17:59;;;;;;;4.43;2.10;;;;;;;18.25;56.77;101425.47;5062153;28;20072;-69
2022/08/06 07:20:28;;;;;;;;;;;;;;;18.22;56.55;101428.97;5067565;28;20048;-67
2022/08/06 07:22:58;;;;;;;3.63;2.13;;;;;;;18.34;56.28;101433.03;5055935;28;19921;-69
2022/08/06 07:25:26;;;;;;;;;;;;;;;18.38;56.12;101431.19;5060359;28;20048;-69
2022/08/06 07:27:53;;;;;;;7.00;2.10;;;;;;;18.54;56.10;101437.84;5053960;28;19980;-70
2022/08/06 07:30:22;;;;;;;5.72;2.60;;;;;;;18.83;54.83;101434.09;5059564;28;20056;-70
2022/08/06 07:32:50;;;;;;;2.95;1.73;;;;;;;19.50;52.82;101428.38;5061846;28;20516;-69
2022/08/06 07:35:20;;;;;;;4.45;1.75;;;;;;;20.30;50.91;101429.72;5058124;28;20470;-70
2022/08/06 07:37:51;;;;;;;3.53;1.58;;;;;;;20.37;50.80;101432.81;5065673;28;20055;-69
2022/08/06 07:40:24;;;;;;;3.65;1.50;;;;;;;20.57;50.06;101430.94;5055973;28;20052;-67
2022/08/06 07:42:57;;;;;;;4.78;1.50;;;;;;;20.42;49.02;101428.88;5060867;28;20052;-69
2022/08/06 07:45:27;;;;;;;3.58;1.20;;;;;;;20.27;48.83;101436.94;5065865;28;20396;-69
2022/08/06 07:47:57;;;;;;;4.53;1.27;;;;;;;20.29;48.93;101436.59;5068326;28;20043;-70
2022/08/06 07:50:28;;;;;;;2.42;1.10;;;;;;;21.33;47.21;101427.41;5066971;28;20416;-69
2022/08/06 07:52:57;;;;;;;2.90;1.00;;;;;;;22.65;43.92;101427.72;5066002;28;20464;-68
2022/08/06 07:55:26;;;;;;;3.67;1.10;;;;;;;23.51;41.41;101425.69;5065671;28;20055;-68
2022/08/06 07:57:54;;;;;;;2.08;1.00;;;;;;;24.77;39.35;101433.28;5064845;28;20059;-68
2022/08/06 08:00:22;;;;;;;3.55;1.05;;;;;;;26.24;36.38;101426.88;5065192;28;20057;-68
2022/08/06 08:08:18;;;;;;;3.20;0.85;;;;;;;28.53;32.38;101422.69;5068748;28;20060;-68
2022/08/06 08:10:46;;;;;;;4.22;1.00;;;;;;;28.80;31.36;101419.28;5064194;28;20053;-68
2022/08/06 08:13:14;;;;;;;3.38;1.25;;;;;;;28.96;30.59;101416.75;5066368;28;20049;-68
2022/08/06 08:15:42;;;;;;;2.13;0.90;;;;;;;30.00;28.98;101420.88;5060928;28;20381;-66
2022/08/06 08:18:09;;;;;;;2.00;0.95;;;;;;;30.47;27.92;101426.91;5070615;28;20516;-66
2022/08/06 08:20:40;;;;;;;2.90;1.08;;;;;;;29.71;28.74;101429.75;5065560;28;20053;-66
2022/08/06 08:23:10;;;;;;;3.35;1.27;;;;;;;30.61;27.43;101423.06;5064543;28;20061;-66
2022/08/06 08:25:37;;;;;;;2.53;1.17;;;;;;;31.43;26.53;101412.44;5069347;28;20052;-66
2022/08/06 08:28:05;;;;;;;3.78;1.20;;;;;;;32.59;24.60;101411.97;5063492;28;20044;-68
2022/08/06 08:30:32;;;;;;;2.83;1.00;;;;;;;33.35;23.80;101414.78;5062685;28;20519;-67
2022/08/06 08:33:00;;;;;;;2.65;1.15;;;;;;;34.06;22.54;101425.75;5069396;28;20053;-67
2022/08/06 08:35:27;;;;;;;6.05;1.20;;;;;;;35.08;20.55;101426.06;5060409;28;20059;-67
2022/08/06 08:37:55;;;;;;;2.28;1.67;;;;;;;35.53;20.83;101416.34;5066347;28;20052;-66
2022/08/06 08:40:25;;;;;;;3.35;1.48;;;;;;;35.92;20.41;101414.19;5064873;28;20075;-68
2022/08/06 08:42:55;;;;;;;2.15;0.93;;;;;;;36.72;19.37;101406.28;5069849;28;20064;-67
2022/08/06 08:45:23;;;;;;;2.45;2.03;;;;;;;37.24;18.50;101412.53;5066886;28;20049;-67
2022/08/06 08:47:52;;;;;;;2.38;1.67;;;;;;;37.05;18.39;101415.34;5071242;28;20048;-67
2022/08/06 08:50:20;;;;;;;2.28;1.33;;;;;;;37.39;19.02;101422.25;5069685;28;20052;-67
2022/08/06 08:52:50;;;;;;;2.78;1.65;;;;;;;38.54;17.42;101420.16;5055694;28;20523;-67
2022/08/06 08:55:25;;;;;;;3.00;2.65;;;;;;;38.56;16.84;101411.75;5056651;28;20060;-67
2022/08/06 08:57:54;;;;;;;2.28;1.48;;;;;;;39.24;17.58;101411.38;5063636;28;20052;-67
2022/08/06 09:00:21;;;;;;;3.25;2.58;;;;;;;39.57;16.20;101413.47;5069654;28;20052;-67
2022/08/06 09:02:50;;;;;;;3.13;2.15;;;;;;;39.33;16.03;101410.50;5055065;28;20060;-65
2022/08/06 09:05:18;;;;;;;4.18;1.75;;;;;;;39.48;16.24;101419.34;5061835;28;20057;-67
2022/08/06 09:07:45;;;;;;;;;;;;;;;39.61;15.60;101413.28;5068151;28;20056;-67
2022/08/06 09:10:12;;;;;;;3.28;1.73;;;;;;;39.47;16.49;101418.56;5071384;28;19947;-67
2022/08/06 09:12:42;;;;;;;2.08;1.13;;;;;;;40.49;14.55;101412.78;5071062;28;20420;-67
2022/08/06 09:15:10;;;;;;;2.38;2.17;;;;;;;41.26;14.04;101405.06;5072180;28;20052;-67
2022/08/06 09:17:38;;;;;;;2.53;1.80;;;;;;;41.73;14.55;101408.16;5066231;28;20063;-67
2022/08/06 09:20:06;;;;;;;;;;;;;;;40.96;13.77;101408.03;5066361;28;20051;-67
2022/08/06 09:22:33;;;;;;;2.30;2.03;;;;;;;42.11;13.84;101412.13;5069935;28;19924;-67
2022/08/06 09:25:01;;;;;;;3.03;2.55;;;;;;;42.76;13.71;101406.66;5060713;28;20516;-67
2022/08/06 09:27:34;;;;;;;2.50;1.73;;;;;;;43.52;13.15;101411.25;5064204;28;20416;-67
2022/08/06 09:30:07;;;;;;;2.03;1.48;;;;;;;44.18;12.59;101412.13;5063144;28;20045;-67
2022/08/06 09:32:38;;;;;;;4.25;1.95;;;;;;;44.76;12.23;101408.72;5069199;28;20052;-67
2022/08/06 09:35:17;;;;;;;2.40;1.98;;;;;;;45.78;11.17;101409.41;5063946;28;20053;-67
2022/08/06 09:37:45;;;;;;;2.63;2.22;;;;;;;45.52;11.49;101415.63;5058292;28;20044;-66
2022/08/06 09:40:12;;;;;;;;;;;;;;;43.56;11.93;101417.66;5056791;28;20048;-67
2022/08/06 09:42:41;;;;;;;2.25;1.73;;;;;;;41.86;13.21;101413.63;5070437;28;19928;-66
2022/08/06 09:45:13;;;;;;;3.30;3.00;;;;;;;41.87;13.69;101421.09;5068270;28;20437;-67
2022/08/06 09:47:41;;;;;;;2.17;1.60;;;;;;;42.61;13.27;101414.78;5053467;28;20068;-67
2022/08/06 09:50:12;;;;;;;3.08;1.83;;;;;;;43.10;12.24;101406.16;5053032;28;20056;-66
2022/08/06 09:52:40;;;;;;;3.55;2.33;;;;;;;43.97;11.77;101407.72;5071444;28;20048;-66
2022/08/06 09:55:08;;;;;;;2.30;1.70;;;;;;;43.91;11.85;101410.66;5073088;28;20067;-66
2022/08/06 09:57:43;;;;;;;2.58;2.17;;;;;;;45.26;10.77;101409.28;5072598;28;20048;-66
2022/08/06 10:00:26;;;;;;;3.60;2.92;;;;;;;44.62;11.71;101420.75;5072697;28;20060;-66
2022/08/06 10:02:57;;;;;;;3.70;1.98;;;;;;;45.54;11.29;101412.94;5072592;28;20053;-66
2022/08/06 10:05:25;;;;;;;2.90;2.65;;;;;;;46.22;10.89;101415.59;5071835;28;20053;-66
2022/08/06 10:08:10;;;;;;;3.17;2.72;;;;;;;46.33;10.54;101412.59;5072125;28;20052;-66
2022/08/06 10:10:46;;;;;;;3.08;1.42;;;;;;;46.86;9.70;101414.66;5072742;28;20404;-66
2022/08/06 10:13:17;;;;;;;3.05;2.83;;;;;;;44.64;10.76;101407.13;5073133;28;20063;-66
2022/08/06 10:15:48;;;;;;;3.25;3.05;;;;;;;42.38;12.12;101416.66;5072724;28;20056;-66
2022/08/06 10:18:35;;;;;;;2.28;2.08;;;;;;;40.76;13.35;101431.31;5072613;28;20056;-66
2022/08/06 10:21:05;;;;;;;2.20;2.00;;;;;;;39.21;14.58;101426.09;5071978;28;20044;-66
2022/08/06 10:23:34;;;;;;;1.73;1.20;;;;;;;39.74;14.44;101423.41;5072517;28;20052;-66
2022/08/06 10:26:04;;;;;;;2.67;1.90;;;;;;;39.97;14.40;101421.00;5072626;28;20060;-66
2022/08/06 10:28:34;;;;;;;5.78;2.00;;;;;;;40.90;13.29;101421.72;5072744;28;20048;-66
2022/08/06 10:31:05;;;;;;;2.08;1.48;;;;;;;40.09;13.43;101425.78;5072550;28;20048;-65
2022/08/06 10:33:37;;;;;;;2.70;2.50;;;;;;;38.74;14.04;101429.16;5072757;28;20392;-66
2022/08/06 10:36:10;;;;;;;1.85;1.65;;;;;;;38.03;14.99;101426.59;5072163;28;20420;-66
2022/08/06 10:38:41;;;;;;;1.75;1.60;;;;;;;38.18;14.84;101434.25;5072408;28;20056;-64
2022/08/06 10:41:10;;;;;;;1.35;1.23;;;;;;;39.07;14.58;101416.78;5072178;28;20048;-65
2022/08/06 10:43:39;;;;;;;1.88;1.00;;;;;;;39.50;14.44;101432.16;5071814;28;20061;-65
2022/08/06 10:46:09;;;;;;;3.22;1.98;;;;;;;39.49;13.70;101427.63;5071871;28;20049;-65
2022/08/06 10:48:38;;;;;;;1.63;1.35;;;;;;;39.58;13.95;101429.66;5072106;28;20060;-65
2022/08/06 10:51:07;;;;;;;1.80;0.88;;;;;;;40.13;13.73;101416.81;5071902;28;20048;-65
2022/08/06 10:53:35;;;;;;;1.80;1.50;;;;;;;40.01;13.68;101417.91;5072335;28;20056;-65
2022/08/06 10:56:05;;;;;;;2.28;2.08;;;;;;;39.68;13.40;101416.63;5071961;28;20052;-65
2022/08/06 10:58:34;;;;;;;2.15;1.25;;;;;;;40.23;13.49;101415.41;5071782;28;20048;-65
2022/08/06 11:01:05;;;;;;;1.77;1.38;;;;;;;40.61;13.25;101416.69;5052061;28;20060;-64
2022/08/06 11:03:46;;;;;;;2.45;1.42;;;;;;;41.77;12.36;101408.75;5067133;28;20409;-64
2022/08/06 11:06:39;;;;;;;2.05;1.55;;;;;;;41.56;12.48;101411.63;5064491;28;20053;-64
2022/08/06 11:09:21;;;;;;;1.35;0.93;;;;;;;40.85;12.44;101407.06;5065928;28;20052;-64
2022/08/06 11:12:07;;;;;;;1.63;1.52;;;;;;;41.81;11.90;101396.81;5068174;28;20048;-64
2022/08/06 11:14:37;;;;;;;1.65;1.40;;;;;;;42.58;12.07;101407.81;5065151;28;20056;-64
2022/08/06 11:17:06;;;;;;;2.55;2.35;;;;;;;42.79;11.54;101405.59;5068526;28;20045;-64
2022/08/06 11:19:43;;;;;;;2.03;1.40;;;;;;;43.73;10.42;101403.09;5056087;28;20049;-64
2022/08/06 11:22:33;;;;;;;1.97;1.77;;;;;;;43.97;9.84;101401.84;5068710;28;20056;-65
2022/08/06 11:25:01;;;;;;;1.55;1.45;;;;;;;43.86;10.70;101396.75;5059362;28;20056;-63
2022/08/06 11:27:51;;;;;;;1.67;1.55;;;;;;;45.22;10.56;101396.97;5069733;28;20063;-64
2022/08/06 11:30:19;;;;;;;2.53;2.33;;;;;;;45.89;9.99;101393.81;5071334;28;20056;-64
2022/08/06 11:32:49;;;;;;;2.10;1.88;;;;;;;46.26;9.99;101389.59;5058146;28;20507;-65
2022/08/06 11:35:44;;;;;;;2.47;2.38;;;;;;;46.33;9.10;101394.94;5075837;28;20064;-64
2022/08/06 11:38:13;;;;;;;3.00;2.80;;;;;;;46.41;9.27;101391.41;5075686;28;20060;-64
2022/08/06 11:41:01;;;;;;;1.83;1.73;;;;;;;46.51;9.50;101393.47;5075899;28;20044;-64
2022/08/06 11:44:03;;;;;;;2.92;2.72;;;;;;;45.38;9.23;101387.28;5063108;28;20048;-64
2022/08/06 11:46:32;;;;;;;2.67;2.47;;;;;;;45.19;8.99;101381.16;5070753;28;20059;-64
2022/08/06 11:49:19;;;;;;;2.08;1.58;;;;;;;45.55;9.28;101390.19;5069348;28;20052;-64
2022/08/06 11:51:50;;;;;;;2.07;1.93;;;;;;;43.19;10.41;101391.28;5069287;28;20051;-64